Hereford, AZ

8:13 AM MST on February 12, 2016 (GMT -0700)
APRSWXNET | | Change Station
CLOSE
Current Station
Personal Weather Station
Location: Sierra Vista, AZ
Elevation: 4603 ft
Nearby Weather Stations

Elev 4603 ft 31.46 °N, 110.23 °W | Updated 22 days ago

Clear
Clear
69 °F
Feels Like 69 °F
N
7
Wind Variable Wind from ESE
Gusts mph

Today
High -- | Low -- °F
--% Chance of Precip.
Yesterday
High -- | Low -- °F
Precip. -- in
Pressure 30.20 in
Visibility 8.0 miles
Clouds Clear
Dew Point 16 °F
Humidity 13%
Rainfall in
Snow Depth Not available.
7:05 AM 6:05 PM
Waxing Crescent, 21% visible
METAR KFHU 121458Z 00000KT 8SM CLR 10/M07 A3031 RMK AO2A SLP226 T01031071 53009
Pressure 30.20 in
Visibility 8.0 miles
Clouds Clear
Dew Point 16 °F
Humidity 13%
Rainfall in
Snow Depth Not available.
7:05 AM 6:05 PM
Waxing Crescent, 21% visible
METAR KFHU 121458Z 00000KT 8SM CLR 10/M07 A3031 RMK AO2A SLP226 T01031071 53009

10-Day Weather Forecast

Almanac

Astronomy

Feb. 12, 2016 Rise Set
Actual Time
Civil Twilight
Nautical Twilight
Astronomical Twilight
Moon
Length of Visible Light
Length of Day
Tomorrow will be .
, % of the Moon is Illuminated

Today's Extremes

State Highs State Lows

Community

WunderPhotos

Upload Photos

1,892,325 photos uploaded!

WunderBlog® & News

Nearby

Air Quality

  Air Quality AQ Index Pollutant
Not available.

Snow Depth

Station Depth Elevation

Earthquake Activity

City Distance Mag. Time & Date
Minimum magnitude displayed is 2.5.

Coastal Water Temperatures

Place Temperature

Stations

Nearby Weather Stations

Station Location Temp. Windchill Dew Point Humidity Wind Precip. Elev Updated Type
                   

Watches & Warnings

There are currently no watches in effect.